sensor_id;sensor_type;location;lat;lon;timestamp;pressure;altitude;pressure_sealevel;temperature;humidity
15674;BME280;7937;48.090;16.212;2022-07-29T00:01:56;97611.09;;;16.48;84.20
15674;BME280;7937;48.090;16.212;2022-07-29T00:04:58;97609.09;;;16.42;84.70
15674;BME280;7937;48.090;16.212;2022-07-29T00:08:00;97614.88;;;16.38;84.65
15674;BME280;7937;48.090;16.212;2022-07-29T00:11:03;97620.88;;;16.32;84.70
15674;BME280;7937;48.090;16.212;2022-07-29T00:14:05;97617.03;;;16.26;84.97
15674;BME280;7937;48.090;16.212;2022-07-29T00:17:07;97616.50;;;16.22;85.02
15674;BME280;7937;48.090;16.212;2022-07-29T00:20:10;97620.69;;;16.25;84.85
15674;BME280;7937;48.090;16.212;2022-07-29T00:23:12;97618.66;;;16.27;84.67
15674;BME280;7937;48.090;16.212;2022-07-29T00:26:14;97620.34;;;16.28;84.50
15674;BME280;7937;48.090;16.212;2022-07-29T00:29:16;97612.00;;;16.23;84.40
15674;BME280;7937;48.090;16.212;2022-07-29T00:32:35;97616.31;;;16.16;84.94
15674;BME280;7937;48.090;16.212;2022-07-29T00:35:37;97605.28;;;16.11;85.08
15674;BME280;7937;48.090;16.212;2022-07-29T00:38:45;97604.16;;;16.13;84.83
15674;BME280;7937;48.090;16.212;2022-07-29T00:41:48;97603.66;;;16.18;84.53
15674;BME280;7937;48.090;16.212;2022-07-29T00:44:50;97606.31;;;16.18;84.27
15674;BME280;7937;48.090;16.212;2022-07-29T00:47:52;97605.28;;;16.11;84.39
15674;BME280;7937;48.090;16.212;2022-07-29T00:50:57;97598.09;;;16.03;84.65
15674;BME280;7937;48.090;16.212;2022-07-29T00:54:00;97593.59;;;15.96;84.78
15674;BME280;7937;48.090;16.212;2022-07-29T00:57:02;97596.72;;;15.91;84.70
15674;BME280;7937;48.090;16.212;2022-07-29T01:04:28;97589.34;;;15.77;84.92
15674;BME280;7937;48.090;16.212;2022-07-29T01:07:35;97593.59;;;15.70;85.39
15674;BME280;7937;48.090;16.212;2022-07-29T01:10:39;97594.22;;;15.64;85.77
15674;BME280;7937;48.090;16.212;2022-07-29T01:13:43;97591.56;;;15.64;85.64
15674;BME280;7937;48.090;16.212;2022-07-29T01:16:51;97591.38;;;15.57;86.03
15674;BME280;7937;48.090;16.212;2022-07-29T01:20:12;97590.53;;;15.57;85.76
15674;BME280;7937;48.090;16.212;2022-07-29T01:26:49;97593.09;;;15.48;85.92
15674;BME280;7937;48.090;16.212;2022-07-29T01:29:58;97596.09;;;15.45;86.00
15674;BME280;7937;48.090;16.212;2022-07-29T01:33:08;97599.72;;;15.44;85.83
15674;BME280;7937;48.090;16.212;2022-07-29T01:36:14;97590.22;;;15.42;86.00
15674;BME280;7937;48.090;16.212;2022-07-29T01:48:43;97601.31;;;15.37;86.18
15674;BME280;7937;48.090;16.212;2022-07-29T01:51:52;97590.19;;;15.34;85.96
15674;BME280;7937;48.090;16.212;2022-07-29T01:54:57;97590.63;;;15.29;86.02
15674;BME280;7937;48.090;16.212;2022-07-29T01:58:03;97593.13;;;15.31;86.21
15674;BME280;7937;48.090;16.212;2022-07-29T02:01:08;97596.47;;;15.33;85.82
15674;BME280;7937;48.090;16.212;2022-07-29T02:04:12;97598.59;;;15.29;85.98
15674;BME280;7937;48.090;16.212;2022-07-29T02:07:34;97599.22;;;15.23;85.76
15674;BME280;7937;48.090;16.212;2022-07-29T02:10:40;97603.84;;;15.21;85.83
15674;BME280;7937;48.090;16.212;2022-07-29T02:13:44;97609.19;;;15.21;85.94
15674;BME280;7937;48.090;16.212;2022-07-29T02:16:52;97602.88;;;15.22;86.05
15674;BME280;7937;48.090;16.212;2022-07-29T02:19:58;97609.47;;;15.18;85.67
15674;BME280;7937;48.090;16.212;2022-07-29T02:23:02;97605.31;;;15.16;86.44
15674;BME280;7937;48.090;16.212;2022-07-29T02:26:04;97605.78;;;15.11;86.78
15674;BME280;7937;48.090;16.212;2022-07-29T02:29:08;97601.75;;;15.07;86.98
15674;BME280;7937;48.090;16.212;2022-07-29T02:32:13;97603.03;;;15.03;87.21
15674;BME280;7937;48.090;16.212;2022-07-29T02:35:17;97600.38;;;15.03;87.25
15674;BME280;7937;48.090;16.212;2022-07-29T02:38:21;97604.44;;;15.07;87.02
15674;BME280;7937;48.090;16.212;2022-07-29T02:41:52;97603.03;;;15.03;86.53
15674;BME280;7937;48.090;16.212;2022-07-29T02:44:55;97601.53;;;15.00;86.69
15674;BME280;7937;48.090;16.212;2022-07-29T02:47:59;97594.53;;;14.99;86.73
15674;BME280;7937;48.090;16.212;2022-07-29T02:51:09;97592.50;;;14.93;86.94
15674;BME280;7937;48.090;16.212;2022-07-29T02:54:41;97591.25;;;14.88;87.35
15674;BME280;7937;48.090;16.212;2022-07-29T03:01:04;97596.56;;;14.88;87.75
15674;BME280;7937;48.090;16.212;2022-07-29T03:04:12;97592.44;;;14.85;87.40
15674;BME280;7937;48.090;16.212;2022-07-29T03:07:18;97595.53;;;14.81;87.53
15674;BME280;7937;48.090;16.212;2022-07-29T03:10:23;97595.00;;;14.77;87.50
15674;BME280;7937;48.090;16.212;2022-07-29T03:13:26;97592.50;;;14.75;87.62
15674;BME280;7937;48.090;16.212;2022-07-29T03:16:29;97598.81;;;14.74;87.96
15674;BME280;7937;48.090;16.212;2022-07-29T03:19:32;97600.06;;;14.70;88.07
15674;BME280;7937;48.090;16.212;2022-07-29T03:22:42;97598.41;;;14.69;88.21
15674;BME280;7937;48.090;16.212;2022-07-29T03:25:45;97594.06;;;14.68;88.28
15674;BME280;7937;48.090;16.212;2022-07-29T03:28:48;97589.75;;;14.67;88.49
15674;BME280;7937;48.090;16.212;2022-07-29T03:31:50;97599.25;;;14.70;88.61
15674;BME280;7937;48.090;16.212;2022-07-29T03:34:52;97590.00;;;14.74;88.84
15674;BME280;7937;48.090;16.212;2022-07-29T03:37:54;97597.28;;;14.72;88.76
15674;BME280;7937;48.090;16.212;2022-07-29T03:41:00;97593.63;;;14.73;89.02
15674;BME280;7937;48.090;16.212;2022-07-29T03:44:05;97593.94;;;14.70;89.11
15674;BME280;7937;48.090;16.212;2022-07-29T03:47:09;97591.41;;;14.68;89.33
15674;BME280;7937;48.090;16.212;2022-07-29T03:50:14;97595.06;;;14.67;89.26
15674;BME280;7937;48.090;16.212;2022-07-29T03:53:17;97594.47;;;14.73;89.24
15674;BME280;7937;48.090;16.212;2022-07-29T03:56:22;97590.50;;;14.77;89.26
15674;BME280;7937;48.090;16.212;2022-07-29T03:59:25;97598.88;;;14.83;89.11
15674;BME280;7937;48.090;16.212;2022-07-29T04:02:28;97600.53;;;14.84;88.86
15674;BME280;7937;48.090;16.212;2022-07-29T04:05:31;97595.22;;;14.84;88.88
15674;BME280;7937;48.090;16.212;2022-07-29T04:08:34;97604.88;;;14.85;88.99
15674;BME280;7937;48.090;16.212;2022-07-29T04:11:38;97601.91;;;14.88;89.29
15674;BME280;7937;48.090;16.212;2022-07-29T04:15:04;97600.06;;;14.88;88.82
15674;BME280;7937;48.090;16.212;2022-07-29T04:18:06;97602.44;;;14.91;88.84
15674;BME280;7937;48.090;16.212;2022-07-29T04:21:08;97610.81;;;14.96;89.09
15674;BME280;7937;48.090;16.212;2022-07-29T04:24:10;97601.66;;;14.99;88.74
15674;BME280;7937;48.090;16.212;2022-07-29T04:27:13;97601.91;;;15.05;88.50
15674;BME280;7937;48.090;16.212;2022-07-29T04:30:15;97608.72;;;15.08;88.66
15674;BME280;7937;48.090;16.212;2022-07-29T04:33:17;97605.78;;;15.11;88.63
15674;BME280;7937;48.090;16.212;2022-07-29T04:36:19;97596.81;;;15.12;88.51
15674;BME280;7937;48.090;16.212;2022-07-29T04:39:30;97605.19;;;15.17;88.71
15674;BME280;7937;48.090;16.212;2022-07-29T04:42:32;97605.22;;;15.25;88.46
15674;BME280;7937;48.090;16.212;2022-07-29T04:45:45;97603.31;;;15.35;88.36
15674;BME280;7937;48.090;16.212;2022-07-29T04:48:47;97599.50;;;15.38;88.44
15674;BME280;7937;48.090;16.212;2022-07-29T04:51:50;97607.22;;;15.49;88.12
15674;BME280;7937;48.090;16.212;2022-07-29T04:54:52;97599.84;;;15.61;87.74
15674;BME280;7937;48.090;16.212;2022-07-29T04:57:54;97605.94;;;15.79;87.65
15674;BME280;7937;48.090;16.212;2022-07-29T05:00:56;97605.06;;;15.96;87.16
15674;BME280;7937;48.090;16.212;2022-07-29T05:03:58;97614.81;;;16.13;86.67
15674;BME280;7937;48.090;16.212;2022-07-29T05:07:01;97617.34;;;16.23;86.20
15674;BME280;7937;48.090;16.212;2022-07-29T05:10:03;97616.25;;;16.42;86.11
15674;BME280;7937;48.090;16.212;2022-07-29T05:13:07;97622.84;;;16.64;85.68
15674;BME280;7937;48.090;16.212;2022-07-29T05:16:09;97615.41;;;16.83;84.89
15674;BME280;7937;48.090;16.212;2022-07-29T05:19:11;97618.06;;;17.00;84.58
15674;BME280;7937;48.090;16.212;2022-07-29T05:22:15;97616.59;;;17.13;84.04
15674;BME280;7937;48.090;16.212;2022-07-29T05:25:17;97617.59;;;17.28;83.46
15674;BME280;7937;48.090;16.212;2022-07-29T05:28:19;97612.09;;;17.46;83.38
15674;BME280;7937;48.090;16.212;2022-07-29T05:31:21;97616.28;;;17.65;82.79
15674;BME280;7937;48.090;16.212;2022-07-29T05:34:23;97621.25;;;17.84;82.33
15674;BME280;7937;48.090;16.212;2022-07-29T05:37:26;97621.34;;;18.07;81.89
15674;BME280;7937;48.090;16.212;2022-07-29T05:40:28;97619.44;;;18.32;81.16
15674;BME280;7937;48.090;16.212;2022-07-29T05:43:31;97625.84;;;18.54;80.63
15674;BME280;7937;48.090;16.212;2022-07-29T05:46:33;97629.31;;;18.70;80.26
15674;BME280;7937;48.090;16.212;2022-07-29T05:49:36;97631.06;;;18.86;80.14
15674;BME280;7937;48.090;16.212;2022-07-29T05:52:38;97632.13;;;19.00;79.82
15674;BME280;7937;48.090;16.212;2022-07-29T05:55:40;97635.72;;;19.15;79.65
15674;BME280;7937;48.090;16.212;2022-07-29T05:58:42;97635.94;;;19.28;79.31
15674;BME280;7937;48.090;16.212;2022-07-29T06:01:48;97634.88;;;19.37;79.53
15674;BME280;7937;48.090;16.212;2022-07-29T06:04:50;97629.00;;;19.42;79.27
15674;BME280;7937;48.090;16.212;2022-07-29T06:07:52;97637.91;;;19.57;78.58
15674;BME280;7937;48.090;16.212;2022-07-29T06:10:54;97637.44;;;19.76;78.41
15674;BME280;7937;48.090;16.212;2022-07-29T06:13:56;97645.38;;;19.84;78.06
15674;BME280;7937;48.090;16.212;2022-07-29T06:16:59;97640.78;;;19.93;77.79
15674;BME280;7937;48.090;16.212;2022-07-29T06:20:01;97648.09;;;20.14;77.34
15674;BME280;7937;48.090;16.212;2022-07-29T06:23:04;97639.59;;;20.25;77.00
15674;BME280;7937;48.090;16.212;2022-07-29T06:26:06;97637.00;;;20.32;76.99
15674;BME280;7937;48.090;16.212;2022-07-29T06:29:09;97632.97;;;20.36;76.49
15674;BME280;7937;48.090;16.212;2022-07-29T06:32:12;97629.47;;;20.35;76.36
15674;BME280;7937;48.090;16.212;2022-07-29T06:35:14;97636.81;;;20.48;75.88
15674;BME280;7937;48.090;16.212;2022-07-29T06:38:36;97642.38;;;20.61;75.58
15674;BME280;7937;48.090;16.212;2022-07-29T06:41:49;97652.25;;;20.60;75.79
15674;BME280;7937;48.090;16.212;2022-07-29T06:44:52;97649.94;;;20.72;75.52
15674;BME280;7937;48.090;16.212;2022-07-29T06:47:54;97650.47;;;20.82;75.64
15674;BME280;7937;48.090;16.212;2022-07-29T06:50:56;97650.66;;;20.81;75.12
15674;BME280;7937;48.090;16.212;2022-07-29T06:53:58;97647.59;;;20.84;74.96
15674;BME280;7937;48.090;16.212;2022-07-29T06:57:13;97668.06;;;20.85;74.79
15674;BME280;7937;48.090;16.212;2022-07-29T07:00:15;97660.59;;;21.02;74.61
15674;BME280;7937;48.090;16.212;2022-07-29T07:03:18;97658.91;;;21.15;73.87
15674;BME280;7937;48.090;16.212;2022-07-29T07:06:21;97664.00;;;21.25;73.32
15674;BME280;7937;48.090;16.212;2022-07-29T07:09:23;97665.53;;;21.55;72.38
15674;BME280;7937;48.090;16.212;2022-07-29T07:12:40;97667.91;;;21.93;71.76
15674;BME280;7937;48.090;16.212;2022-07-29T07:15:43;97652.19;;;22.18;70.58
15674;BME280;7937;48.090;16.212;2022-07-29T07:18:45;97659.34;;;22.38;70.70
15674;BME280;7937;48.090;16.212;2022-07-29T07:21:47;97656.03;;;22.36;70.00
15674;BME280;7937;48.090;16.212;2022-07-29T07:24:50;97659.06;;;22.27;70.20
15674;BME280;7937;48.090;16.212;2022-07-29T07:27:52;97656.66;;;22.38;69.11
15674;BME280;7937;48.090;16.212;2022-07-29T07:30:54;97662.41;;;22.70;68.34
15674;BME280;7937;48.090;16.212;2022-07-29T07:33:56;97657.50;;;23.34;66.22
15674;BME280;7937;48.090;16.212;2022-07-29T07:36:59;97665.81;;;24.18;63.30
15674;BME280;7937;48.090;16.212;2022-07-29T07:40:02;97664.44;;;24.93;60.09
15674;BME280;7937;48.090;16.212;2022-07-29T07:43:04;97664.84;;;25.73;57.48
15674;BME280;7937;48.090;16.212;2022-07-29T07:46:06;97667.69;;;26.53;54.23
15674;BME280;7937;48.090;16.212;2022-07-29T07:49:09;97659.09;;;27.10;51.79
15674;BME280;7937;48.090;16.212;2022-07-29T07:52:11;97657.88;;;27.36;50.54
15674;BME280;7937;48.090;16.212;2022-07-29T07:55:13;97670.31;;;27.14;49.09
15674;BME280;7937;48.090;16.212;2022-07-29T07:58:16;97665.25;;;26.81;50.88
15674;BME280;7937;48.090;16.212;2022-07-29T08:01:18;97665.72;;;26.41;52.02
15674;BME280;7937;48.090;16.212;2022-07-29T08:04:23;97674.44;;;25.94;52.55
15674;BME280;7937;48.090;16.212;2022-07-29T08:07:29;97678.47;;;25.85;53.07
15674;BME280;7937;48.090;16.212;2022-07-29T08:10:32;97674.66;;;26.60;51.51
15674;BME280;7937;48.090;16.212;2022-07-29T08:13:53;97673.31;;;27.36;48.32
15674;BME280;7937;48.090;16.212;2022-07-29T08:16:55;97672.00;;;27.57;46.14
15674;BME280;7937;48.090;16.212;2022-07-29T08:19:57;97675.38;;;27.70;47.85
15674;BME280;7937;48.090;16.212;2022-07-29T08:22:59;97665.75;;;28.09;46.38
15674;BME280;7937;48.090;16.212;2022-07-29T08:26:01;97661.75;;;28.70;45.16
15674;BME280;7937;48.090;16.212;2022-07-29T08:29:04;97668.81;;;28.71;44.16
15674;BME280;7937;48.090;16.212;2022-07-29T08:32:06;97667.41;;;28.69;45.58
15674;BME280;7937;48.090;16.212;2022-07-29T08:35:09;97668.00;;;28.71;45.77
15674;BME280;7937;48.090;16.212;2022-07-29T08:38:11;97667.78;;;28.84;46.00
15674;BME280;7937;48.090;16.212;2022-07-29T08:41:13;97664.94;;;29.19;45.95
15674;BME280;7937;48.090;16.212;2022-07-29T08:44:16;97672.41;;;29.52;43.74
15674;BME280;7937;48.090;16.212;2022-07-29T08:47:29;97664.19;;;29.80;41.73
15674;BME280;7937;48.090;16.212;2022-07-29T08:50:31;97667.56;;;29.87;42.29
15674;BME280;7937;48.090;16.212;2022-07-29T08:53:36;97662.66;;;30.18;43.05
15674;BME280;7937;48.090;16.212;2022-07-29T08:56:39;97662.22;;;30.59;42.80
15674;BME280;7937;48.090;16.212;2022-07-29T08:59:42;97667.44;;;30.27;42.99
15674;BME280;7937;48.090;16.212;2022-07-29T09:02:51;97659.94;;;30.18;42.66
15674;BME280;7937;48.090;16.212;2022-07-29T09:05:55;97660.19;;;29.99;42.84
15674;BME280;7937;48.090;16.212;2022-07-29T09:08:58;97661.88;;;29.89;43.42
15674;BME280;7937;48.090;16.212;2022-07-29T09:12:01;97665.09;;;29.69;44.01
15674;BME280;7937;48.090;16.212;2022-07-29T09:15:03;97656.91;;;29.52;43.60
15674;BME280;7937;48.090;16.212;2022-07-29T09:18:05;97657.22;;;29.27;43.69
15674;BME280;7937;48.090;16.212;2022-07-29T09:21:11;97654.09;;;29.07;44.37
15674;BME280;7937;48.090;16.212;2022-07-29T09:27:37;97670.47;;;28.72;46.15
15674;BME280;7937;48.090;16.212;2022-07-29T09:30:53;97665.91;;;28.49;44.88
15674;BME280;7937;48.090;16.212;2022-07-29T09:33:57;97662.59;;;28.36;46.17
15674;BME280;7937;48.090;16.212;2022-07-29T09:37:00;97673.56;;;28.29;46.29
15674;BME280;7937;48.090;16.212;2022-07-29T09:40:11;97669.22;;;28.51;44.42
15674;BME280;7937;48.090;16.212;2022-07-29T09:43:13;97662.16;;;29.42;42.73
15674;BME280;7937;48.090;16.212;2022-07-29T09:46:16;97654.09;;;29.47;42.14
15674;BME280;7937;48.090;16.212;2022-07-29T09:49:18;97648.53;;;29.70;40.94
15674;BME280;7937;48.090;16.212;2022-07-29T09:52:20;97655.47;;;29.95;40.85
15674;BME280;7937;48.090;16.212;2022-07-29T09:55:23;97652.50;;;30.30;40.00
15674;BME280;7937;48.090;16.212;2022-07-29T09:58:26;97649.97;;;31.22;40.44
15674;BME280;7937;48.090;16.212;2022-07-29T10:01:29;97645.03;;;30.59;37.31
15674;BME280;7937;48.090;16.212;2022-07-29T10:04:41;97651.16;;;30.49;37.85
15674;BME280;7937;48.090;16.212;2022-07-29T10:07:50;97652.84;;;30.17;37.86
15674;BME280;7937;48.090;16.212;2022-07-29T10:11:09;97655.72;;;30.27;38.46
15674;BME280;7937;48.090;16.212;2022-07-29T10:14:11;97649.56;;;30.70;37.82
15674;BME280;7937;48.090;16.212;2022-07-29T10:17:15;97643.00;;;31.36;36.56
15674;BME280;7937;48.090;16.212;2022-07-29T10:20:17;97633.69;;;31.59;35.74
15674;BME280;7937;48.090;16.212;2022-07-29T10:23:20;97633.16;;;30.48;37.16
15674;BME280;7937;48.090;16.212;2022-07-29T10:26:22;97650.72;;;30.02;37.53
15674;BME280;7937;48.090;16.212;2022-07-29T10:29:25;97643.19;;;30.09;39.70
15674;BME280;7937;48.090;16.212;2022-07-29T10:39:44;97631.34;;;30.37;43.32
15674;BME280;7937;48.090;16.212;2022-07-29T10:42:52;97629.59;;;30.48;44.17
15674;BME280;7937;48.090;16.212;2022-07-29T10:45:57;97628.38;;;30.38;44.10
15674;BME280;7937;48.090;16.212;2022-07-29T10:49:13;97624.13;;;29.92;40.75
15674;BME280;7937;48.090;16.212;2022-07-29T10:55:54;97616.16;;;30.02;42.49
15674;BME280;7937;48.090;16.212;2022-07-29T11:05:56;97607.81;;;30.48;42.33
15674;BME280;7937;48.090;16.212;2022-07-29T11:09:19;97609.88;;;30.02;41.32
15674;BME280;7937;48.090;16.212;2022-07-29T11:15:54;97598.22;;;30.23;42.85
15674;BME280;7937;48.090;16.212;2022-07-29T11:22:33;97587.28;;;31.05;40.38
15674;BME280;7937;48.090;16.212;2022-07-29T11:25:36;97590.72;;;31.44;39.76
15674;BME280;7937;48.090;16.212;2022-07-29T11:29:03;97589.88;;;31.71;39.44
15674;BME280;7937;48.090;16.212;2022-07-29T11:32:12;97586.78;;;31.62;37.97
15674;BME280;7937;48.090;16.212;2022-07-29T11:35:24;97583.25;;;31.08;38.37
15674;BME280;7937;48.090;16.212;2022-07-29T11:38:41;97578.09;;;30.63;38.70
15674;BME280;7937;48.090;16.212;2022-07-29T11:41:43;97575.91;;;30.43;39.17
15674;BME280;7937;48.090;16.212;2022-07-29T11:45:01;97578.38;;;30.44;39.60
15674;BME280;7937;48.090;16.212;2022-07-29T11:48:27;97570.91;;;31.27;37.85
15674;BME280;7937;48.090;16.212;2022-07-29T11:51:36;97556.97;;;31.87;36.67
15674;BME280;7937;48.090;16.212;2022-07-29T11:54:50;97561.91;;;31.59;37.04
15674;BME280;7937;48.090;16.212;2022-07-29T11:58:01;97559.53;;;31.99;36.57
15674;BME280;7937;48.090;16.212;2022-07-29T12:01:05;97550.56;;;32.04;35.26
15674;BME280;7937;48.090;16.212;2022-07-29T12:04:08;97540.72;;;31.34;36.80
15674;BME280;7937;48.090;16.212;2022-07-29T12:07:11;97548.34;;;30.83;39.12
15674;BME280;7937;48.090;16.212;2022-07-29T12:10:16;97545.16;;;30.91;40.41
15674;BME280;7937;48.090;16.212;2022-07-29T12:13:38;97549.31;;;30.99;40.13
15674;BME280;7937;48.090;16.212;2022-07-29T12:16:41;97551.19;;;30.93;39.65
15674;BME280;7937;48.090;16.212;2022-07-29T12:19:44;97556.78;;;30.81;39.81
15674;BME280;7937;48.090;16.212;2022-07-29T12:22:46;97555.06;;;31.24;40.69
15674;BME280;7937;48.090;16.212;2022-07-29T12:25:51;97550.88;;;32.12;37.29
15674;BME280;7937;48.090;16.212;2022-07-29T12:28:54;97553.88;;;32.63;36.72
15674;BME280;7937;48.090;16.212;2022-07-29T12:31:57;97548.56;;;32.93;35.48
15674;BME280;7937;48.090;16.212;2022-07-29T12:35:09;97540.09;;;32.33;35.65
15674;BME280;7937;48.090;16.212;2022-07-29T12:38:12;97537.09;;;31.28;37.03
15674;BME280;7937;48.090;16.212;2022-07-29T12:41:15;97525.50;;;30.89;38.38
15674;BME280;7937;48.090;16.212;2022-07-29T12:44:17;97537.66;;;31.03;39.91
15674;BME280;7937;48.090;16.212;2022-07-29T12:47:20;97545.75;;;30.71;39.99
15674;BME280;7937;48.090;16.212;2022-07-29T12:50:22;97544.31;;;30.03;41.07
15674;BME280;7937;48.090;16.212;2022-07-29T12:53:27;97535.91;;;29.71;42.05
15674;BME280;7937;48.090;16.212;2022-07-29T12:56:30;97544.16;;;29.60;42.22
15674;BME280;7937;48.090;16.212;2022-07-29T13:00:06;97546.16;;;29.36;42.75
15674;BME280;7937;48.090;16.212;2022-07-29T13:03:12;97546.84;;;28.98;43.83
15674;BME280;7937;48.090;16.212;2022-07-29T13:09:43;97554.72;;;28.31;44.89
15674;BME280;7937;48.090;16.212;2022-07-29T13:16:08;97558.97;;;27.57;46.82
15674;BME280;7937;48.090;16.212;2022-07-29T13:19:12;97557.19;;;27.09;46.66
15674;BME280;7937;48.090;16.212;2022-07-29T13:22:16;97565.03;;;26.51;48.14
15674;BME280;7937;48.090;16.212;2022-07-29T13:25:30;97573.66;;;26.23;49.40
15674;BME280;7937;48.090;16.212;2022-07-29T13:28:33;97585.22;;;26.12;51.36
15674;BME280;7937;48.090;16.212;2022-07-29T13:31:36;97587.16;;;26.05;51.43
15674;BME280;7937;48.090;16.212;2022-07-29T13:34:38;97588.25;;;25.97;51.55
15674;BME280;7937;48.090;16.212;2022-07-29T13:37:40;97610.38;;;25.69;52.14
15674;BME280;7937;48.090;16.212;2022-07-29T13:40:42;97621.47;;;25.55;52.51
15674;BME280;7937;48.090;16.212;2022-07-29T13:43:44;97634.03;;;25.43;52.76
15674;BME280;7937;48.090;16.212;2022-07-29T13:46:50;97656.34;;;25.31;53.36
15674;BME280;7937;48.090;16.212;2022-07-29T13:49:52;97657.53;;;25.04;55.18
15674;BME280;7937;48.090;16.212;2022-07-29T13:52:55;97661.41;;;24.63;56.62
15674;BME280;7937;48.090;16.212;2022-07-29T13:55:57;97668.31;;;24.40;58.53
15674;BME280;7937;48.090;16.212;2022-07-29T13:58:59;97666.69;;;23.92;61.05
15674;BME280;7937;48.090;16.212;2022-07-29T14:02:02;97662.13;;;23.53;62.87
15674;BME280;7937;48.090;16.212;2022-07-29T14:05:06;97655.19;;;23.25;63.86
15674;BME280;7937;48.090;16.212;2022-07-29T14:08:09;97653.88;;;23.01;64.29
15674;BME280;7937;48.090;16.212;2022-07-29T14:11:11;97656.34;;;22.96;65.97
15674;BME280;7937;48.090;16.212;2022-07-29T14:14:13;97648.03;;;22.84;67.71
15674;BME280;7937;48.090;16.212;2022-07-29T14:17:15;97638.41;;;22.68;69.62
15674;BME280;7937;48.090;16.212;2022-07-29T14:20:18;97640.97;;;22.42;71.31
15674;BME280;7937;48.090;16.212;2022-07-29T14:23:20;97637.91;;;22.17;72.38
15674;BME280;7937;48.090;16.212;2022-07-29T14:26:22;97623.81;;;22.08;72.52
15674;BME280;7937;48.090;16.212;2022-07-29T14:29:25;97611.59;;;22.06;73.07
15674;BME280;7937;48.090;16.212;2022-07-29T14:32:38;97605.66;;;21.89;74.38
15674;BME280;7937;48.090;16.212;2022-07-29T14:35:41;97609.53;;;21.80;74.42
15674;BME280;7937;48.090;16.212;2022-07-29T14:38:43;97612.94;;;21.95;74.91
15674;BME280;7937;48.090;16.212;2022-07-29T14:41:45;97606.28;;;22.19;73.95
15674;BME280;7937;48.090;16.212;2022-07-29T14:44:47;97607.97;;;22.27;73.50
15674;BME280;7937;48.090;16.212;2022-07-29T14:47:51;97591.47;;;22.30;73.50
15674;BME280;7937;48.090;16.212;2022-07-29T14:50:58;97581.59;;;22.43;73.47
15674;BME280;7937;48.090;16.212;2022-07-29T14:54:05;97570.72;;;22.65;73.24
15674;BME280;7937;48.090;16.212;2022-07-29T14:57:07;97557.44;;;22.57;73.55
15674;BME280;7937;48.090;16.212;2022-07-29T15:00:10;97554.78;;;22.70;74.05
15674;BME280;7937;48.090;16.212;2022-07-29T15:03:13;97550.72;;;22.87;74.24
15674;BME280;7937;48.090;16.212;2022-07-29T15:06:26;97541.22;;;22.98;74.01
15674;BME280;7937;48.090;16.212;2022-07-29T15:09:28;97542.06;;;23.05;74.33
15674;BME280;7937;48.090;16.212;2022-07-29T15:12:31;97537.91;;;22.96;74.99
15674;BME280;7937;48.090;16.212;2022-07-29T15:15:33;97546.78;;;22.90;75.27
15674;BME280;7937;48.090;16.212;2022-07-29T15:18:35;97553.00;;;22.84;76.22
15674;BME280;7937;48.090;16.212;2022-07-29T15:21:39;97547.13;;;22.67;76.32
15674;BME280;7937;48.090;16.212;2022-07-29T15:24:48;97537.75;;;22.56;77.49
15674;BME280;7937;48.090;16.212;2022-07-29T15:27:51;97536.09;;;22.49;78.12
15674;BME280;7937;48.090;16.212;2022-07-29T15:30:57;97537.53;;;22.44;78.02
15674;BME280;7937;48.090;16.212;2022-07-29T15:33:59;97537.75;;;22.43;78.39
15674;BME280;7937;48.090;16.212;2022-07-29T15:37:07;97541.47;;;22.42;78.71
15674;BME280;7937;48.090;16.212;2022-07-29T15:40:09;97538.13;;;22.40;79.21
15674;BME280;7937;48.090;16.212;2022-07-29T15:43:12;97535.66;;;22.38;79.38
15674;BME280;7937;48.090;16.212;2022-07-29T15:46:15;97534.63;;;22.46;79.52
15674;BME280;7937;48.090;16.212;2022-07-29T15:49:38;97539.84;;;22.54;79.03
15674;BME280;7937;48.090;16.212;2022-07-29T15:52:49;97535.31;;;22.61;78.66
15674;BME280;7937;48.090;16.212;2022-07-29T15:55:52;97536.34;;;22.67;77.71
15674;BME280;7937;48.090;16.212;2022-07-29T15:58:54;97529.97;;;22.74;77.24
15674;BME280;7937;48.090;16.212;2022-07-29T16:01:57;97526.06;;;22.77;76.89
15674;BME280;7937;48.090;16.212;2022-07-29T16:05:00;97524.84;;;22.79;76.73
15674;BME280;7937;48.090;16.212;2022-07-29T16:08:02;97514.69;;;22.75;77.37
15674;BME280;7937;48.090;16.212;2022-07-29T16:11:04;97514.47;;;22.76;77.10
15674;BME280;7937;48.090;16.212;2022-07-29T16:14:06;97510.16;;;23.28;75.51
15674;BME280;7937;48.090;16.212;2022-07-29T16:17:10;97503.16;;;25.82;65.98
15674;BME280;7937;48.090;16.212;2022-07-29T16:20:15;97496.38;;;27.82;57.47
15674;BME280;7937;48.090;16.212;2022-07-29T16:23:18;97497.66;;;27.56;57.05
15674;BME280;7937;48.090;16.212;2022-07-29T16:26:20;97490.34;;;26.62;59.58
15674;BME280;7937;48.090;16.212;2022-07-29T16:29:22;97481.09;;;25.85;63.00
15674;BME280;7937;48.090;16.212;2022-07-29T16:32:24;97487.94;;;25.37;65.00
15674;BME280;7937;48.090;16.212;2022-07-29T16:35:26;97487.00;;;25.00;66.37
15674;BME280;7937;48.090;16.212;2022-07-29T16:38:40;97490.56;;;24.63;67.91
15674;BME280;7937;48.090;16.212;2022-07-29T16:41:48;97489.03;;;24.36;68.65
15674;BME280;7937;48.090;16.212;2022-07-29T16:44:50;97488.50;;;24.07;69.65
15674;BME280;7937;48.090;16.212;2022-07-29T16:47:53;97486.44;;;23.96;70.73
15674;BME280;7937;48.090;16.212;2022-07-29T16:51:01;97487.97;;;23.85;71.38
15674;BME280;7937;48.090;16.212;2022-07-29T16:54:03;97497.28;;;23.76;72.09
15674;BME280;7937;48.090;16.212;2022-07-29T16:57:05;97487.78;;;23.61;72.60
15674;BME280;7937;48.090;16.212;2022-07-29T17:00:08;97484.50;;;23.45;72.53
15674;BME280;7937;48.090;16.212;2022-07-29T17:03:10;97481.81;;;23.26;73.13
15674;BME280;7937;48.090;16.212;2022-07-29T17:06:14;97481.16;;;22.84;73.93
15674;BME280;7937;48.090;16.212;2022-07-29T17:09:16;97481.13;;;22.64;74.04
15674;BME280;7937;48.090;16.212;2022-07-29T17:12:18;97488.50;;;22.49;74.46
15674;BME280;7937;48.090;16.212;2022-07-29T17:15:20;97494.91;;;22.35;74.35